Time;durP1;ratioP1;P1;durP2;ratioP2;P2;SDS_P1;SDS_P2;PMS_P1;PMS_P2;Temp;Humidity;BMP_temperature;BMP_pressure;BME280_temperature;BME280_humidity;BME280_pressure;Samples;Min_cycle;Max_cycle;Signal;HPM_P1;HPM_P2
2024/01/10 00:01:36;;;;;;;74.10;38.50;;;-7.10;66.90;;;;;;6260425;28;20345;-82
2024/01/10 00:04:41;;;;;;;64.53;36.17;;;-7.20;66.70;;;;;;6269155;28;20234;-80
2024/01/10 00:07:49;;;;;;;66.43;36.30;;;-7.20;66.70;;;;;;6267712;28;20227;-77
2024/01/10 00:10:54;;;;;;;70.90;37.83;;;-7.20;66.70;;;;;;6242287;28;20242;-80
2024/01/10 00:13:59;;;;;;;71.00;36.10;;;-7.30;66.70;;;;;;6246127;28;20241;-81
2024/01/10 00:17:04;;;;;;;70.83;37.33;;;-7.30;66.90;;;;;;6232104;28;20343;-79
2024/01/10 00:20:09;;;;;;;69.87;36.03;;;-7.30;66.90;;;;;;6239139;28;20245;-79
2024/01/10 00:23:12;;;;;;;66.83;36.70;;;-7.30;66.90;;;;;;6226617;28;20319;-82
2024/01/10 00:26:16;;;;;;;66.30;35.87;;;-7.30;66.70;;;;;;6241798;28;20264;-79
2024/01/10 00:29:19;;;;;;;70.40;37.57;;;-7.30;66.80;;;;;;6250325;28;20302;-80
2024/01/10 00:32:23;;;;;;;74.07;37.67;;;-7.30;66.80;;;;;;6255595;28;20325;-82
2024/01/10 00:35:27;;;;;;;73.23;36.60;;;-7.30;67.00;;;;;;6257517;28;20237;-82
2024/01/10 00:38:33;;;;;;;70.70;37.30;;;-7.30;67.10;;;;;;6263096;28;20245;-82
2024/01/10 00:41:36;;;;;;;76.50;39.37;;;-7.30;67.10;;;;;;6265787;28;20230;-77
2024/01/10 00:44:39;;;;;;;74.13;36.67;;;-7.30;67.10;;;;;;6263581;28;20249;-81
2024/01/10 00:47:42;;;;;;;66.20;36.60;;;-7.30;67.00;;;;;;6268868;28;20237;-81
2024/01/10 00:50:47;;;;;;;76.57;37.10;;;-7.30;66.90;;;;;;6256565;28;20233;-81
2024/01/10 00:53:50;;;;;;;73.13;39.87;;;-7.30;66.90;;;;;;6257801;28;20477;-78
2024/01/10 00:56:54;;;;;;;73.33;39.03;;;-7.40;67.00;;;;;;6266893;28;20229;-83
2024/01/10 00:59:57;;;;;;;68.40;37.47;;;-7.30;66.90;;;;;;6263477;28;20230;-81
2024/01/10 01:03:00;;;;;;;81.80;40.50;;;-7.30;66.80;;;;;;6262958;28;20230;-82
2024/01/10 01:06:04;;;;;;;76.73;39.80;;;-7.40;66.80;;;;;;6247405;28;20249;-80
2024/01/10 01:09:08;;;;;;;72.07;39.43;;;-7.30;66.90;;;;;;6253339;28;20237;-82
2024/01/10 01:12:11;;;;;;;71.53;38.03;;;-7.30;66.80;;;;;;6269052;28;20240;-80
2024/01/10 01:15:14;;;;;;;66.00;38.47;;;-7.30;66.50;;;;;;6273425;28;20651;-82
2024/01/10 01:18:19;;;;;;;69.43;37.57;;;-7.30;66.40;;;;;;6268653;28;20312;-79
2024/01/10 01:21:23;;;;;;;72.77;39.63;;;-7.40;66.40;;;;;;6267732;28;20259;-82
2024/01/10 01:24:26;;;;;;;74.37;39.70;;;-7.40;66.50;;;;;;6270625;28;20250;-82
2024/01/10 01:27:29;;;;;;;68.93;37.73;;;-7.40;66.50;;;;;;6278402;28;20234;-79
2024/01/10 01:30:33;;;;;;;74.50;39.80;;;-7.40;66.50;;;;;;6264127;28;20335;-82
2024/01/10 01:33:36;;;;;;;71.87;36.97;;;-7.40;66.50;;;;;;6270378;28;20307;-81
2024/01/10 01:36:40;;;;;;;70.97;37.63;;;-7.40;66.60;;;;;;6260620;28;20243;-81
2024/01/10 01:39:43;;;;;;;71.67;37.80;;;-7.40;66.60;;;;;;6272897;28;20261;-81
2024/01/10 01:42:48;;;;;;;63.90;35.80;;;-7.40;66.50;;;;;;6258816;28;20630;-80
2024/01/10 01:45:53;;;;;;;69.67;37.77;;;-7.40;66.50;;;;;;6272003;28;20372;-78
2024/01/10 01:48:56;;;;;;;63.23;34.77;;;-7.40;66.40;;;;;;6267237;28;20743;-76
2024/01/10 01:52:02;;;;;;;66.40;34.20;;;-7.30;66.20;;;;;;6262751;28;20230;-82
2024/01/10 01:55:07;;;;;;;70.27;35.70;;;-7.30;66.30;;;;;;6261454;28;20254;-81
2024/01/10 01:58:11;;;;;;;63.10;34.00;;;-7.30;66.40;;;;;;6267396;28;20266;-83
2024/01/10 02:01:14;;;;;;;65.13;34.30;;;-7.40;66.20;;;;;;6270113;28;20249;-84
2024/01/10 02:04:17;;;;;;;68.07;34.87;;;-7.40;66.10;;;;;;6273605;28;20338;-83
2024/01/10 02:07:22;;;;;;;70.60;35.73;;;-7.40;65.90;;;;;;6266454;28;20380;-83
2024/01/10 02:10:25;;;;;;;59.87;33.33;;;-7.30;65.80;;;;;;6250948;28;20552;-80
2024/01/10 02:13:29;;;;;;;65.73;35.57;;;-7.40;65.80;;;;;;6286000;28;20431;-82
2024/01/10 02:16:32;;;;;;;68.10;35.47;;;-7.40;65.70;;;;;;6250418;28;20266;-81
2024/01/10 02:19:35;;;;;;;69.67;36.47;;;-7.40;65.40;;;;;;6255178;28;20234;-85
2024/01/10 02:22:40;;;;;;;69.73;35.67;;;-7.40;65.50;;;;;;6270874;28;20249;-83
2024/01/10 02:25:45;;;;;;;60.67;36.50;;;-7.30;65.40;;;;;;6275926;28;20234;-81
2024/01/10 02:28:48;;;;;;;70.27;34.73;;;-7.40;65.30;;;;;;6280551;28;20245;-75
2024/01/10 02:31:51;;;;;;;66.93;36.33;;;-7.40;65.10;;;;;;6271414;28;20297;-78
2024/01/10 02:34:55;;;;;;;75.80;38.23;;;-7.40;64.80;;;;;;6293925;28;20428;-80
2024/01/10 02:37:58;;;;;;;66.03;33.37;;;-7.40;64.60;;;;;;6288747;28;20238;-83
2024/01/10 02:41:03;;;;;;;60.67;33.97;;;-7.40;64.70;;;;;;6269150;28;20487;-79
2024/01/10 02:44:06;;;;;;;69.60;34.30;;;-7.40;64.70;;;;;;6264861;28;20235;-82
2024/01/10 02:47:09;;;;;;;71.90;36.87;;;-7.40;64.80;;;;;;6264155;28;20238;-81
2024/01/10 02:50:13;;;;;;;64.13;34.53;;;-7.40;64.70;;;;;;6275883;28;20238;-81
2024/01/10 02:53:16;;;;;;;62.40;34.83;;;-7.40;64.70;;;;;;6257947;28;20254;-84
2024/01/10 02:56:21;;;;;;;69.23;35.60;;;-7.40;64.80;;;;;;6270172;28;20229;-81
2024/01/10 02:59:24;;;;;;;63.10;34.23;;;-7.40;64.90;;;;;;6270712;28;20344;-80
2024/01/10 03:02:27;;;;;;;59.07;33.00;;;-7.40;64.90;;;;;;6268889;28;20237;-82
2024/01/10 03:05:31;;;;;;;60.67;34.67;;;-7.40;65.10;;;;;;6279427;28;20238;-78
2024/01/10 03:08:34;;;;;;;66.83;35.10;;;-7.40;65.00;;;;;;6272165;28;20239;-76
2024/01/10 03:11:38;;;;;;;68.00;35.33;;;-7.40;64.70;;;;;;6283388;28;20268;-78
2024/01/10 03:14:41;;;;;;;64.63;34.07;;;-7.30;64.70;;;;;;6269926;28;20385;-78
2024/01/10 03:17:44;;;;;;;69.57;34.90;;;-7.40;64.30;;;;;;6281435;28;20223;-75
2024/01/10 03:20:48;;;;;;;64.53;33.17;;;-7.40;64.30;;;;;;6284315;28;20260;-74
2024/01/10 03:23:51;;;;;;;73.63;35.70;;;-7.30;64.20;;;;;;6293345;28;20291;-79
2024/01/10 03:26:56;;;;;;;68.37;35.83;;;-7.30;64.30;;;;;;6285167;28;20291;-80
2024/01/10 03:29:59;;;;;;;70.63;34.90;;;-7.40;64.30;;;;;;6280726;28;20246;-74
2024/01/10 03:33:02;;;;;;;67.97;35.00;;;-7.30;64.20;;;;;;6273444;28;20250;-79
2024/01/10 03:36:08;;;;;;;77.37;37.77;;;-7.20;64.10;;;;;;6256426;28;20234;-80
2024/01/10 03:39:11;;;;;;;61.73;34.20;;;-7.30;64.40;;;;;;6252327;28;20238;-80
2024/01/10 03:42:16;;;;;;;64.00;34.37;;;-7.30;64.50;;;;;;6269792;28;20245;-79
2024/01/10 03:45:22;;;;;;;65.93;36.73;;;-7.40;64.60;;;;;;6275432;28;20294;-83
2024/01/10 03:48:26;;;;;;;67.03;36.50;;;-7.40;64.70;;;;;;6274046;28;20329;-79
2024/01/10 03:51:29;;;;;;;73.43;36.47;;;-7.40;64.80;;;;;;6251303;28;20252;-79
2024/01/10 03:54:33;;;;;;;72.60;37.23;;;-7.40;65.00;;;;;;6270934;28;20253;-76
2024/01/10 03:57:38;;;;;;;73.00;37.73;;;-7.40;64.70;;;;;;6264338;28;20246;-79
2024/01/10 04:00:41;;;;;;;68.90;36.57;;;-7.40;64.80;;;;;;6274843;28;20281;-81
2024/01/10 04:03:44;;;;;;;70.63;36.77;;;-7.40;64.40;;;;;;6280888;28;20238;-78
2024/01/10 04:06:47;;;;;;;66.43;35.80;;;-7.40;64.60;;;;;;6282896;28;20233;-79
2024/01/10 04:09:50;;;;;;;66.83;37.30;;;-7.40;64.70;;;;;;6282146;28;20249;-80
2024/01/10 04:12:55;;;;;;;62.33;35.23;;;-7.50;64.80;;;;;;6280472;28;20234;-81
2024/01/10 04:15:58;;;;;;;66.40;35.53;;;-7.40;64.90;;;;;;6283513;28;20242;-80
2024/01/10 04:19:01;;;;;;;70.07;36.77;;;-7.50;65.00;;;;;;6261207;28;20238;-81
2024/01/10 04:22:18;;;;;;;70.17;36.53;;;-7.40;64.50;;;;;;6270130;28;20429;-79
2024/01/10 04:25:21;;;;;;;62.17;34.60;;;-7.40;64.40;;;;;;6266124;28;20273;-79
2024/01/10 04:28:26;;;;;;;64.03;33.80;;;-7.40;64.40;;;;;;6267223;28;20250;-82
2024/01/10 04:31:29;;;;;;;63.97;35.33;;;-7.40;64.50;;;;;;6276189;28;20241;-79
2024/01/10 04:34:32;;;;;;;76.37;35.50;;;-7.50;64.60;;;;;;6292369;28;20240;-79
2024/01/10 04:37:36;;;;;;;67.27;36.13;;;-7.40;64.50;;;;;;6277707;28;20234;-81
2024/01/10 04:40:39;;;;;;;68.20;34.77;;;-7.50;64.40;;;;;;6270118;28;20253;-78
2024/01/10 04:43:43;;;;;;;66.27;36.33;;;-7.50;64.40;;;;;;6283680;28;20285;-78
2024/01/10 04:46:46;;;;;;;65.63;34.13;;;-7.50;64.30;;;;;;6276883;28;20234;-76
2024/01/10 04:49:49;;;;;;;59.47;33.73;;;-7.50;64.40;;;;;;6287503;28;20258;-76
2024/01/10 04:52:53;;;;;;;66.33;34.80;;;-7.50;64.30;;;;;;6280319;28;20229;-76
2024/01/10 04:55:56;;;;;;;61.00;34.77;;;-7.50;64.20;;;;;;6280666;28;20730;-78
2024/01/10 04:59:01;;;;;;;65.70;33.90;;;-7.50;64.30;;;;;;6275609;28;20246;-75
2024/01/10 05:02:05;;;;;;;69.80;35.47;;;-7.50;64.20;;;;;;6288489;28;20237;-78
2024/01/10 05:05:08;;;;;;;65.37;33.93;;;-7.50;64.30;;;;;;6280381;28;20257;-77
2024/01/10 05:08:12;;;;;;;70.90;35.50;;;-7.50;64.20;;;;;;6282449;28;20229;-78
2024/01/10 05:11:17;;;;;;;70.17;36.37;;;-7.50;64.10;;;;;;6282947;28;20222;-78
2024/01/10 05:14:21;;;;;;;63.90;35.70;;;-7.40;63.70;;;;;;6274179;28;20242;-78
2024/01/10 05:17:25;;;;;;;66.27;35.63;;;-7.40;63.80;;;;;;6278009;28;20246;-77
2024/01/10 05:20:28;;;;;;;72.70;36.73;;;-7.50;63.60;;;;;;6285393;28;20245;-75
2024/01/10 05:23:32;;;;;;;62.77;36.43;;;-7.40;63.70;;;;;;6274697;28;20234;-81
2024/01/10 05:26:35;;;;;;;66.10;35.93;;;-7.40;63.70;;;;;;6282867;28;20697;-75
2024/01/10 05:29:40;;;;;;;62.73;34.40;;;-7.40;63.60;;;;;;6278838;28;20242;-77
2024/01/10 05:32:45;;;;;;;62.10;34.70;;;-7.50;63.90;;;;;;6291400;28;20306;-79
2024/01/10 05:35:48;;;;;;;66.03;35.23;;;-7.50;63.90;;;;;;6277732;28;20249;-76
2024/01/10 05:38:51;;;;;;;66.03;35.87;;;-7.50;64.10;;;;;;6288873;28;20283;-75
2024/01/10 05:41:55;;;;;;;64.40;34.70;;;-7.50;64.00;;;;;;6284815;28;20245;-76
2024/01/10 05:45:00;;;;;;;64.33;36.60;;;-7.50;63.70;;;;;;6279563;28;20244;-74
2024/01/10 05:48:04;;;;;;;66.77;34.97;;;-7.50;63.70;;;;;;6291257;28;20230;-76
2024/01/10 05:51:07;;;;;;;69.53;36.80;;;-7.50;63.90;;;;;;6281241;28;20241;-77
2024/01/10 05:54:10;;;;;;;64.63;35.57;;;-7.50;63.90;;;;;;6281712;28;20222;-77
2024/01/10 05:57:13;;;;;;;69.53;35.73;;;-7.50;64.00;;;;;;6290732;28;20237;-76
2024/01/10 06:00:20;;;;;;;73.27;37.80;;;-7.50;64.00;;;;;;6285476;28;20226;-75
2024/01/10 06:03:24;;;;;;;66.03;35.10;;;-7.60;64.10;;;;;;6254431;28;20632;-84
2024/01/10 06:06:28;;;;;;;76.57;37.27;;;-7.60;64.20;;;;;;6260191;28;20302;-81
2024/01/10 06:09:31;;;;;;;64.47;36.00;;;-7.50;64.30;;;;;;6264536;28;20241;-85
2024/01/10 06:12:34;;;;;;;61.10;34.13;;;-7.50;64.20;;;;;;6265688;28;20238;-82
2024/01/10 06:15:39;;;;;;;66.00;36.83;;;-7.50;64.30;;;;;;6276349;28;20241;-76
2024/01/10 06:18:42;;;;;;;70.77;37.10;;;-7.50;64.30;;;;;;6265445;28;20321;-84
2024/01/10 06:21:45;;;;;;;67.93;37.47;;;-7.50;64.40;;;;;;6266670;28;20573;-84
2024/01/10 06:24:48;;;;;;;76.93;38.67;;;-7.50;64.30;;;;;;6263576;28;20250;-81
2024/01/10 06:27:52;;;;;;;70.07;36.23;;;-7.60;64.20;;;;;;6267387;28;20447;-74
2024/01/10 06:30:57;;;;;;;72.90;38.30;;;-7.60;64.30;;;;;;6264785;28;20230;-85
2024/01/10 06:34:00;;;;;;;71.70;37.13;;;-7.60;64.40;;;;;;6266268;28;20258;-79
2024/01/10 06:37:03;;;;;;;72.67;37.90;;;-7.60;64.30;;;;;;6254600;28;20377;-75
2024/01/10 06:40:08;;;;;;;75.33;38.03;;;-7.60;64.30;;;;;;6262882;28;20317;-76
2024/01/10 06:43:11;;;;;;;69.23;37.07;;;-7.60;64.40;;;;;;6252900;28;20361;-75
2024/01/10 06:46:16;;;;;;;67.23;35.53;;;-7.60;64.50;;;;;;6260967;28;20256;-77
2024/01/10 06:49:21;;;;;;;65.50;35.27;;;-7.60;64.80;;;;;;6262784;28;20234;-77
2024/01/10 06:52:24;;;;;;;74.90;37.57;;;-7.60;65.00;;;;;;6263614;28;20704;-78
2024/01/10 06:55:29;;;;;;;73.23;39.03;;;-7.60;65.10;;;;;;6254542;28;20253;-77
2024/01/10 06:58:32;;;;;;;72.20;38.00;;;-7.60;65.30;;;;;;6257380;28;20235;-77
2024/01/10 07:01:39;;;;;;;74.20;38.30;;;-7.60;65.30;;;;;;6252076;28;20928;-79
2024/01/10 07:04:42;;;;;;;70.60;35.93;;;-7.50;65.00;;;;;;6258892;28;20460;-76
2024/01/10 07:07:46;;;;;;;68.23;37.17;;;-7.50;64.20;;;;;;6256962;28;20367;-78
2024/01/10 07:10:49;;;;;;;79.83;37.47;;;-7.50;64.10;;;;;;6258471;28;20727;-78
2024/01/10 07:13:52;;;;;;;72.83;39.07;;;-7.50;64.20;;;;;;6264806;28;20226;-79
2024/01/10 07:16:59;;;;;;;71.60;39.13;;;-7.50;64.30;;;;;;6261209;28;20419;-77
2024/01/10 07:20:03;;;;;;;73.43;36.33;;;-7.50;64.40;;;;;;6252613;28;20753;-78
2024/01/10 07:23:06;;;;;;;70.47;38.20;;;-7.50;64.60;;;;;;6254191;28;20245;-77
2024/01/10 07:26:09;;;;;;;66.80;37.17;;;-7.40;64.50;;;;;;6259095;28;20238;-80
2024/01/10 07:29:12;;;;;;;68.10;36.70;;;-7.40;64.40;;;;;;6264740;28;20450;-79
2024/01/10 07:32:17;;;;;;;72.63;38.70;;;-7.30;64.30;;;;;;6255892;28;20774;-80
2024/01/10 07:35:20;;;;;;;73.63;38.50;;;-7.30;64.40;;;;;;6258506;28;20265;-76
2024/01/10 07:38:23;;;;;;;77.37;40.23;;;-7.30;64.50;;;;;;6265268;28;20240;-80
2024/01/10 07:41:27;;;;;;;80.13;39.13;;;-7.30;64.50;;;;;;6262055;28;20234;-77
2024/01/10 07:44:30;;;;;;;79.00;41.37;;;-7.30;64.60;;;;;;6261135;28;20241;-78
2024/01/10 07:47:37;;;;;;;83.33;41.97;;;-7.20;64.70;;;;;;6266029;28;20326;-79
2024/01/10 07:50:40;;;;;;;84.50;40.80;;;-7.10;65.00;;;;;;6275754;28;20233;-77
2024/01/10 07:53:43;;;;;;;83.07;40.23;;;-7.10;65.00;;;;;;6265535;28;20678;-78
2024/01/10 07:56:46;;;;;;;72.20;39.67;;;-7.10;64.60;;;;;;6267162;28;20304;-79
2024/01/10 07:59:49;;;;;;;75.50;38.50;;;-7.10;64.80;;;;;;6261244;28;20681;-77
2024/01/10 08:02:54;;;;;;;69.77;39.90;;;-7.00;64.70;;;;;;6252806;28;20292;-78
2024/01/10 08:05:57;;;;;;;75.73;37.53;;;-6.90;64.60;;;;;;6259805;28;20233;-79
2024/01/10 08:09:04;;;;;;;71.27;38.90;;;-6.80;64.10;;;;;;6270664;28;20240;-79
2024/01/10 08:12:07;;;;;;;73.13;37.57;;;-6.80;63.70;;;;;;6264183;28;20221;-78
2024/01/10 08:15:12;;;;;;;67.83;37.07;;;-6.70;63.20;;;;;;6259833;28;20824;-76
2024/01/10 08:18:17;;;;;;;77.50;38.40;;;-6.70;62.90;;;;;;6259815;28;20297;-76
2024/01/10 08:21:20;;;;;;;73.93;38.30;;;-6.60;63.00;;;;;;6251518;28;20237;-76
2024/01/10 08:24:23;;;;;;;66.47;36.17;;;-6.50;62.60;;;;;;6260097;28;20383;-76
2024/01/10 08:27:26;;;;;;;78.97;37.73;;;-6.40;62.70;;;;;;6261832;28;20226;-79
2024/01/10 08:30:30;;;;;;;77.80;39.43;;;-6.30;62.40;;;;;;6253390;28;20892;-78
2024/01/10 08:33:34;;;;;;;69.70;38.33;;;-6.30;62.30;;;;;;6243661;28;20242;-77
2024/01/10 08:36:38;;;;;;;73.63;39.13;;;-6.10;61.70;;;;;;6257901;28;20233;-76
2024/01/10 08:39:42;;;;;;;68.33;37.40;;;-6.00;61.80;;;;;;6265101;28;20246;-77
2024/01/10 08:42:45;;;;;;;84.23;39.67;;;-6.00;61.40;;;;;;6258325;28;20237;-78
2024/01/10 08:45:48;;;;;;;68.20;37.37;;;-5.90;60.90;;;;;;6252569;28;20377;-77
2024/01/10 08:48:53;;;;;;;78.43;37.50;;;-5.80;60.40;;;;;;6252503;28;20234;-77
2024/01/10 08:51:56;;;;;;;74.43;39.00;;;-5.60;60.40;;;;;;6251288;28;20241;-79
2024/01/10 08:54:59;;;;;;;80.50;39.60;;;-5.50;60.20;;;;;;6264005;28;20829;-80
2024/01/10 08:58:02;;;;;;;72.17;38.47;;;-5.40;59.50;;;;;;6259557;28;20289;-80
2024/01/10 09:01:08;;;;;;;66.43;36.43;;;-5.30;59.00;;;;;;6246178;28;20234;-77
2024/01/10 09:04:13;;;;;;;71.87;38.50;;;-5.20;59.00;;;;;;6255186;28;20860;-78
2024/01/10 09:07:17;;;;;;;69.60;38.10;;;-5.10;58.50;;;;;;6252590;28;20241;-77
2024/01/10 09:10:21;;;;;;;69.80;37.43;;;-5.00;57.90;;;;;;6254341;28;21052;-77
2024/01/10 09:13:24;;;;;;;67.20;38.17;;;-5.00;57.70;;;;;;6260532;28;20249;-79
2024/01/10 09:16:28;;;;;;;69.30;38.20;;;-4.90;57.80;;;;;;6244596;28;20316;-78
2024/01/10 09:19:32;;;;;;;73.47;40.13;;;-4.80;57.50;;;;;;6254814;28;20854;-76
2024/01/10 09:22:35;;;;;;;70.83;37.70;;;-4.70;56.80;;;;;;6259109;28;20234;-78
2024/01/10 09:25:38;;;;;;;69.43;36.73;;;-4.60;56.60;;;;;;6262453;28;20234;-77
2024/01/10 09:28:41;;;;;;;75.10;38.20;;;-4.60;56.20;;;;;;6257463;28;20484;-77
2024/01/10 09:31:45;;;;;;;69.77;36.30;;;-4.40;56.00;;;;;;6262849;28;20234;-78
2024/01/10 09:34:50;;;;;;;67.70;35.70;;;-4.40;55.60;;;;;;6250193;28;20426;-79
2024/01/10 09:37:53;;;;;;;55.77;32.43;;;-4.30;55.50;;;;;;6252362;28;20886;-77
2024/01/10 09:41:02;;;;;;;61.93;35.23;;;-4.20;55.30;;;;;;6263521;28;20269;-77
2024/01/10 09:44:06;;;;;;;63.47;34.57;;;-4.10;54.50;;;;;;6248121;28;20238;-77
2024/01/10 09:47:10;;;;;;;66.20;35.00;;;-4.00;54.60;;;;;;6268206;28;20773;-77
2024/01/10 09:50:15;;;;;;;69.43;35.17;;;-4.00;54.60;;;;;;6256054;28;20238;-79
2024/01/10 09:53:23;;;;;;;57.90;32.50;;;-3.80;54.20;;;;;;6254358;28;20242;-79
2024/01/10 09:56:27;;;;;;;57.70;32.73;;;-3.80;53.70;;;;;;6256151;28;20234;-76
2024/01/10 09:59:30;;;;;;;60.33;33.70;;;-3.60;52.90;;;;;;6263308;28;20246;-77
2024/01/10 10:02:34;;;;;;;62.77;34.27;;;-3.60;52.90;;;;;;6257050;28;20251;-78
2024/01/10 10:05:39;;;;;;;66.23;34.20;;;-3.60;53.10;;;;;;6262567;28;20314;-79
2024/01/10 10:08:42;;;;;;;58.90;33.30;;;-3.50;53.30;;;;;;6252205;28;20365;-77
2024/01/10 10:11:54;;;;;;;60.23;32.90;;;-3.40;52.80;;;;;;6259545;28;20237;-77
2024/01/10 10:14:57;;;;;;;61.10;33.23;;;-3.40;52.70;;;;;;6255849;28;20776;-78
2024/01/10 10:18:00;;;;;;;61.30;33.20;;;-3.40;53.20;;;;;;6259555;28;20325;-77
2024/01/10 10:21:11;;;;;;;63.93;34.20;;;-3.20;52.90;;;;;;6267608;28;20269;-78
2024/01/10 10:24:14;;;;;;;61.80;33.57;;;-3.20;52.30;;;;;;6253828;28;20380;-78
2024/01/10 10:27:21;;;;;;;58.90;35.87;;;-3.10;53.00;;;;;;6266634;28;20246;-79
2024/01/10 10:30:25;;;;;;;68.47;36.57;;;-3.10;52.60;;;;;;6249929;28;20321;-80
2024/01/10 10:33:28;;;;;;;68.73;34.93;;;-3.00;52.40;;;;;;6265308;28;20237;-77
2024/01/10 10:36:33;;;;;;;62.10;34.47;;;-2.90;52.20;;;;;;6255950;28;20264;-78
2024/01/10 10:39:37;;;;;;;65.63;36.10;;;-2.80;52.60;;;;;;6253939;28;20263;-79
2024/01/10 10:42:45;;;;;;;63.63;34.30;;;-2.70;51.90;;;;;;6263610;28;20242;-77
2024/01/10 10:45:50;;;;;;;65.57;35.40;;;-2.40;51.80;;;;;;6249404;28;20310;-78
2024/01/10 10:48:54;;;;;;;64.87;35.97;;;-2.40;51.50;;;;;;6251454;28;20290;-77
2024/01/10 10:52:01;;;;;;;61.20;35.73;;;-2.30;51.50;;;;;;6258905;28;20226;-78
2024/01/10 10:55:05;;;;;;;56.03;33.30;;;-2.10;51.70;;;;;;6263625;28;20250;-79
2024/01/10 10:58:10;;;;;;;59.03;32.53;;;-2.10;51.00;;;;;;6265031;28;20234;-77
2024/01/10 11:01:15;;;;;;;51.50;30.60;;;-1.90;51.00;;;;;;6263492;28;20265;-79
2024/01/10 11:04:19;;;;;;;56.80;32.00;;;-1.70;50.80;;;;;;6261319;28;20341;-77
2024/01/10 11:07:24;;;;;;;59.67;32.10;;;-1.70;50.80;;;;;;6250295;28;20227;-77
2024/01/10 11:10:33;;;;;;;59.50;30.83;;;-1.70;50.10;;;;;;6260266;28;20245;-78
2024/01/10 11:13:52;;;;;;;60.33;31.50;;;-1.80;50.00;;;;;;6255778;28;20230;-79
2024/01/10 11:17:30;;;;;;;59.37;32.77;;;-1.70;50.30;;;;;;6256702;28;20307;-76
2024/01/10 11:20:53;;;;;;;52.13;30.10;;;-1.70;49.70;;;;;;6257920;28;20250;-79
2024/01/10 11:24:00;;;;;;;55.60;30.30;;;-1.70;50.10;;;;;;6222507;28;20251;-76
2024/01/10 11:27:13;;;;;;;51.70;29.87;;;-1.70;49.80;;;;;;6233083;28;20242;-79
2024/01/10 11:30:33;;;;;;;53.20;30.27;;;-1.50;50.00;;;;;;6237835;28;20322;-78
2024/01/10 11:33:41;;;;;;;50.10;27.70;;;-1.40;49.40;;;;;;6235450;28;20683;-81
2024/01/10 11:37:10;;;;;;;44.00;26.43;;;-1.30;48.60;;;;;;6239442;28;20248;-77
2024/01/10 11:40:15;;;;;;;43.53;27.13;;;-1.30;47.60;;;;;;6234933;28;20287;-77
2024/01/10 11:43:19;;;;;;;46.03;26.80;;;-1.30;47.50;;;;;;6228959;28;20235;-76
2024/01/10 11:46:23;;;;;;;41.57;25.80;;;-1.30;47.60;;;;;;6238795;28;20266;-77
2024/01/10 11:49:27;;;;;;;45.03;25.67;;;-1.30;47.60;;;;;;6229231;28;20432;-76
2024/01/10 11:52:34;;;;;;;45.37;24.80;;;-1.30;47.20;;;;;;6231445;28;20250;-78
2024/01/10 11:55:52;;;;;;;42.20;25.40;;;-1.10;47.70;;;;;;6231687;28;20292;-77
2024/01/10 11:58:57;;;;;;;37.97;24.50;;;-1.10;46.90;;;;;;6232633;28;20259;-78
2024/01/10 12:02:00;;;;;;;42.83;25.97;;;-1.10;47.40;;;;;;6240270;28;20238;-78
2024/01/10 12:05:04;;;;;;;40.40;24.50;;;-1.00;47.70;;;;;;6242596;28;20231;-77
2024/01/10 12:08:09;;;;;;;45.10;24.97;;;-0.80;47.40;;;;;;6244409;28;20243;-78
2024/01/10 12:11:14;;;;;;;35.37;22.37;;;-0.70;47.10;;;;;;6231314;28;20659;-78
2024/01/10 12:14:20;;;;;;;33.80;22.63;;;-0.70;46.20;;;;;;6232034;28;20672;-75
2024/01/10 12:17:28;;;;;;;35.43;22.73;;;-0.60;46.90;;;;;;6242977;28;20599;-79
2024/01/10 12:20:33;;;;;;;39.83;25.13;;;-0.40;46.60;;;;;;6227534;28;20812;-77
2024/01/10 12:23:38;;;;;;;39.00;23.53;;;-0.30;45.80;;;;;;6240022;28;20733;-77
2024/01/10 12:26:46;;;;;;;48.90;26.13;;;-0.30;46.40;;;;;;6258204;28;20238;-77
2024/01/10 12:29:50;;;;;;;37.50;23.77;;;-0.30;46.80;;;;;;6264269;28;20245;-78
2024/01/10 12:32:54;;;;;;;40.63;22.53;;;-0.20;46.40;;;;;;6264871;28;20238;-80
2024/01/10 12:36:08;;;;;;;37.10;23.40;;;-0.20;45.40;;;;;;6259672;28;20257;-78
2024/01/10 12:39:12;;;;;;;38.93;22.40;;;-0.20;45.10;;;;;;6247137;28;20226;-78
2024/01/10 12:42:17;;;;;;;38.53;23.17;;;-0.20;45.20;;;;;;6249089;28;20246;-76
2024/01/10 12:45:23;;;;;;;41.17;25.40;;;-0.20;44.80;;;;;;6247431;28;20263;-78
2024/01/10 12:48:26;;;;;;;41.80;23.53;;;-0.20;45.60;;;;;;6256441;28;20238;-78
2024/01/10 12:51:30;;;;;;;39.63;24.07;;;-0.30;44.60;;;;;;6250906;28;20876;-76
2024/01/10 12:54:35;;;;;;;40.10;23.97;;;-0.30;45.00;;;;;;6250456;28;20237;-80
2024/01/10 12:57:41;;;;;;;40.67;24.53;;;-0.20;45.90;;;;;;6256300;28;20238;-80
2024/01/10 13:00:44;;;;;;;39.07;24.70;;;-0.10;46.10;;;;;;6259214;28;20296;-77
2024/01/10 13:03:49;;;;;;;40.83;24.97;;;-0.10;46.50;;;;;;6259687;28;20288;-75
2024/01/10 13:06:53;;;;;;;43.47;24.97;;;-0.10;46.20;;;;;;6266018;28;20829;-77
2024/01/10 13:09:56;;;;;;;39.33;25.67;;;-0.10;46.10;;;;;;6253334;28;20284;-78
2024/01/10 13:13:01;;;;;;;36.90;23.57;;;-0.10;45.40;;;;;;6260632;28;20238;-77
2024/01/10 13:16:05;;;;;;;42.27;24.60;;;-0.20;45.30;;;;;;6261237;28;20234;-76
2024/01/10 13:19:08;;;;;;;38.37;23.27;;;-0.20;45.50;;;;;;6256907;28;20239;-77
2024/01/10 13:22:13;;;;;;;36.73;24.17;;;-0.10;45.90;;;;;;6259532;28;20234;-77
2024/01/10 13:25:17;;;;;;;39.03;24.70;;;-0.10;46.40;;;;;;6264936;28;20246;-78
2024/01/10 13:28:21;;;;;;;39.63;25.07;;;-0.10;46.30;;;;;;6257541;28;20241;-77
2024/01/10 13:31:25;;;;;;;38.07;23.33;;;-0.10;46.00;;;;;;6266700;28;20662;-77
2024/01/10 13:34:28;;;;;;;32.80;23.50;;;-0.10;45.50;;;;;;6267256;28;20256;-77
2024/01/10 13:37:32;;;;;;;37.43;22.27;;;-0.20;45.90;;;;;;6269646;28;20236;-77
2024/01/10 13:40:35;;;;;;;34.97;22.70;;;-0.10;44.80;;;;;;6268962;28;20260;-78
2024/01/10 13:43:40;;;;;;;42.17;23.10;;;-0.20;45.70;;;;;;6268290;28;20294;-77
2024/01/10 13:46:43;;;;;;;39.80;22.77;;;-0.30;45.60;;;;;;6268826;28;20637;-78
2024/01/10 13:49:46;;;;;;;37.23;23.50;;;-0.40;45.90;;;;;;6268970;28;20238;-76
2024/01/10 13:52:49;;;;;;;40.23;23.27;;;-0.50;46.40;;;;;;6268682;28;20232;-77
2024/01/10 13:55:53;;;;;;;39.07;23.77;;;-0.50;46.80;;;;;;6267846;28;20237;-78
2024/01/10 13:58:59;;;;;;;41.10;23.20;;;-0.50;47.30;;;;;;6270025;28;20266;-79
2024/01/10 14:02:02;;;;;;;44.93;25.57;;;-0.60;47.40;;;;;;6270416;28;20278;-75
2024/01/10 14:05:06;;;;;;;37.07;23.43;;;-0.70;47.90;;;;;;6268776;28;20257;-77
2024/01/10 14:08:10;;;;;;;38.03;22.37;;;-0.70;47.70;;;;;;6267910;28;20226;-78
2024/01/10 14:11:14;;;;;;;39.40;24.23;;;-0.80;48.00;;;;;;6267546;28;20241;-77
2024/01/10 14:14:18;;;;;;;39.27;24.43;;;-0.90;48.20;;;;;;6269843;28;20697;-78
2024/01/10 14:17:25;;;;;;;37.40;23.67;;;-1.00;48.40;;;;;;6272581;28;20238;-76
2024/01/10 14:20:28;;;;;;;39.23;23.93;;;-1.00;48.50;;;;;;6268881;28;20236;-78
2024/01/10 14:23:32;;;;;;;41.40;24.70;;;-1.10;48.90;;;;;;6266995;28;20371;-77
2024/01/10 14:26:35;;;;;;;48.87;24.90;;;-1.10;49.30;;;;;;6267733;28;20233;-76
2024/01/10 14:29:39;;;;;;;45.20;25.70;;;-1.30;49.70;;;;;;6266234;28;20289;-77
2024/01/10 14:32:42;;;;;;;45.43;24.60;;;-1.30;50.10;;;;;;6266324;28;20718;-77
2024/01/10 14:35:46;;;;;;;36.80;23.87;;;-1.50;50.40;;;;;;6266338;28;20700;-78
2024/01/10 14:38:50;;;;;;;38.57;23.53;;;-1.50;50.20;;;;;;6250390;28;20240;-75
2024/01/10 14:41:53;;;;;;;35.70;20.67;;;-1.50;50.20;;;;;;6266309;28;20242;-78
2024/01/10 14:44:59;;;;;;;35.33;21.77;;;-1.60;50.60;;;;;;6268219;28;20347;-76
2024/01/10 14:48:03;;;;;;;35.23;21.17;;;-1.70;50.70;;;;;;6256308;28;20300;-75
2024/01/10 14:51:06;;;;;;;28.03;19.20;;;-1.80;50.70;;;;;;6267961;28;20316;-76
2024/01/10 14:54:10;;;;;;;34.63;20.13;;;-1.80;50.90;;;;;;6267477;28;20814;-76
2024/01/10 14:57:14;;;;;;;33.70;21.23;;;-1.90;51.20;;;;;;6269408;28;20241;-75
2024/01/10 15:00:19;;;;;;;28.10;19.17;;;-2.00;51.00;;;;;;6265518;28;20268;-76
2024/01/10 15:03:22;;;;;;;31.37;19.90;;;-2.10;51.00;;;;;;6266791;28;20394;-77
2024/01/10 15:06:29;;;;;;;26.50;18.93;;;-2.10;51.00;;;;;;6264895;28;20249;-76
2024/01/10 15:09:32;;;;;;;36.13;19.93;;;-2.10;50.80;;;;;;6266190;28;20244;-75
2024/01/10 15:12:35;;;;;;;32.30;19.70;;;-2.20;51.00;;;;;;6269034;28;20253;-79
2024/01/10 15:15:42;;;;;;;34.23;20.53;;;-2.20;51.10;;;;;;6264148;28;20282;-76
2024/01/10 15:18:45;;;;;;;31.43;20.23;;;-2.20;51.50;;;;;;6265039;28;20233;-80
2024/01/10 15:21:48;;;;;;;33.77;20.67;;;-2.30;51.90;;;;;;6265783;28;20230;-78
2024/01/10 15:24:51;;;;;;;38.23;21.07;;;-2.40;52.60;;;;;;6264180;28;20258;-75
2024/01/10 15:27:55;;;;;;;31.83;20.63;;;-2.40;53.00;;;;;;6265792;28;21472;-76
2024/01/10 15:31:00;;;;;;;35.93;21.70;;;-2.50;53.40;;;;;;6265267;28;20388;-76
2024/01/10 15:34:04;;;;;;;36.40;22.40;;;-2.60;53.90;;;;;;6265877;28;20776;-75
2024/01/10 15:37:07;;;;;;;31.47;20.83;;;-2.60;54.20;;;;;;6268273;28;20433;-78